sensor_id;sensor_type;location;lat;lon;timestamp;pressure;altitude;pressure_sealevel;temperature;humidity
51297;BME280;37380;45.186;9.792;2023-03-31T00:01:55;101243.84;;;11.24;100.00
51297;BME280;37380;45.186;9.792;2023-03-31T00:04:23;101192.72;;;10.88;100.00
51297;BME280;37380;45.186;9.792;2023-03-31T00:06:51;101208.31;;;11.08;100.00
51297;BME280;37380;45.186;9.792;2023-03-31T00:09:20;101212.41;;;11.01;100.00
51297;BME280;37380;45.186;9.792;2023-03-31T00:11:48;101142.56;;;10.76;100.00
51297;BME280;37380;45.186;9.792;2023-03-31T00:14:17;101129.81;;;10.63;100.00
51297;BME280;37380;45.186;9.792;2023-03-31T00:16:45;101123.06;;;10.47;100.00
51297;BME280;37380;45.186;9.792;2023-03-31T00:19:13;101193.13;;;10.99;100.00
51297;BME280;37380;45.186;9.792;2023-03-31T00:21:47;101211.00;;;11.09;100.00
51297;BME280;37380;45.186;9.792;2023-03-31T00:24:17;101209.22;;;11.08;100.00
51297;BME280;37380;45.186;9.792;2023-03-31T00:26:44;101173.47;;;10.65;100.00
51297;BME280;37380;45.186;9.792;2023-03-31T00:29:12;101168.94;;;10.61;100.00
51297;BME280;37380;45.186;9.792;2023-03-31T00:31:39;101189.84;;;10.61;100.00
51297;BME280;37380;45.186;9.792;2023-03-31T00:34:08;101154.84;;;10.37;100.00
51297;BME280;37380;45.186;9.792;2023-03-31T00:36:35;101133.81;;;10.55;100.00
51297;BME280;37380;45.186;9.792;2023-03-31T00:39:13;101131.72;;;10.46;100.00
51297;BME280;37380;45.186;9.792;2023-03-31T00:41:40;101132.72;;;10.50;100.00
51297;BME280;37380;45.186;9.792;2023-03-31T00:44:11;101187.28;;;10.84;100.00
51297;BME280;37380;45.186;9.792;2023-03-31T00:46:55;101110.31;;;10.34;100.00
51297;BME280;37380;45.186;9.792;2023-03-31T00:49:27;101178.56;;;10.83;100.00
51297;BME280;37380;45.186;9.792;2023-03-31T00:51:59;101180.50;;;11.10;100.00
51297;BME280;37380;45.186;9.792;2023-03-31T00:54:35;101081.41;;;10.50;100.00
51297;BME280;37380;45.186;9.792;2023-03-31T00:57:37;101150.41;;;10.76;100.00
51297;BME280;37380;45.186;9.792;2023-03-31T01:00:33;101136.66;;;10.82;100.00
51297;BME280;37380;45.186;9.792;2023-03-31T01:03:05;101168.31;;;11.10;100.00
51297;BME280;37380;45.186;9.792;2023-03-31T01:05:44;101111.31;;;10.58;100.00
51297;BME280;37380;45.186;9.792;2023-03-31T01:08:15;101066.63;;;10.30;100.00
51297;BME280;37380;45.186;9.792;2023-03-31T01:10:46;101177.94;;;10.89;100.00
51297;BME280;37380;45.186;9.792;2023-03-31T01:13:17;101020.31;;;10.06;100.00
51297;BME280;37380;45.186;9.792;2023-03-31T01:15:44;101130.16;;;10.93;100.00
51297;BME280;37380;45.186;9.792;2023-03-31T01:18:12;101153.88;;;10.98;100.00
51297;BME280;37380;45.186;9.792;2023-03-31T01:46:26;101123.41;;;11.43;100.00
51297;BME280;37380;45.186;9.792;2023-03-31T01:49:16;101110.44;;;11.46;100.00
51297;BME280;37380;45.186;9.792;2023-03-31T01:52:07;101102.09;;;11.34;100.00
51297;BME280;37380;45.186;9.792;2023-03-31T01:54:56;101103.41;;;11.45;100.00
51297;BME280;37380;45.186;9.792;2023-03-31T01:58:11;101110.44;;;11.24;100.00
51297;BME280;37380;45.186;9.792;2023-03-31T02:03:59;101122.13;;;11.33;100.00
51297;BME280;37380;45.186;9.792;2023-03-31T02:06:30;101111.47;;;11.51;100.00
51297;BME280;37380;45.186;9.792;2023-03-31T02:09:07;101076.56;;;11.04;100.00
51297;BME280;37380;45.186;9.792;2023-03-31T02:11:39;101025.56;;;10.93;100.00
51297;BME280;37380;45.186;9.792;2023-03-31T02:14:09;101101.88;;;11.28;100.00
51297;BME280;37380;45.186;9.792;2023-03-31T02:16:41;101121.66;;;11.44;100.00
51297;BME280;37380;45.186;9.792;2023-03-31T02:19:16;101111.69;;;11.33;100.00
51297;BME280;37380;45.186;9.792;2023-03-31T02:21:46;101107.41;;;11.36;100.00
51297;BME280;37380;45.186;9.792;2023-03-31T02:24:19;101103.59;;;11.27;100.00
51297;BME280;37380;45.186;9.792;2023-03-31T02:29:35;101017.00;;;10.52;100.00
51297;BME280;37380;45.186;9.792;2023-03-31T02:32:30;101043.59;;;10.85;100.00
51297;BME280;37380;45.186;9.792;2023-03-31T02:34:59;101014.78;;;10.84;100.00
51297;BME280;37380;45.186;9.792;2023-03-31T02:37:28;101070.69;;;11.34;100.00
51297;BME280;37380;45.186;9.792;2023-03-31T02:39:59;100957.16;;;10.81;100.00
51297;BME280;37380;45.186;9.792;2023-03-31T02:42:27;101044.34;;;11.52;100.00
51297;BME280;37380;45.186;9.792;2023-03-31T02:45:01;101035.47;;;11.48;100.00
51297;BME280;37380;45.186;9.792;2023-03-31T02:47:28;101067.44;;;11.64;100.00
51297;BME280;37380;45.186;9.792;2023-03-31T02:49:58;101054.47;;;11.67;100.00
51297;BME280;37380;45.186;9.792;2023-03-31T02:53:29;101059.50;;;11.61;100.00
51297;BME280;37380;45.186;9.792;2023-03-31T03:02:18;101065.09;;;11.47;100.00
51297;BME280;37380;45.186;9.792;2023-03-31T03:09:35;101038.78;;;11.67;100.00
51297;BME280;37380;45.186;9.792;2023-03-31T03:12:10;101008.53;;;11.51;100.00
51297;BME280;37380;45.186;9.792;2023-03-31T03:15:02;101054.13;;;11.57;100.00
51297;BME280;37380;45.186;9.792;2023-03-31T03:20:04;101056.38;;;11.47;100.00
51297;BME280;37380;45.186;9.792;2023-03-31T03:22:36;101059.88;;;11.47;100.00
51297;BME280;37380;45.186;9.792;2023-03-31T03:25:05;101056.69;;;11.56;100.00
51297;BME280;37380;45.186;9.792;2023-03-31T03:27:34;100980.38;;;11.20;100.00
51297;BME280;37380;45.186;9.792;2023-03-31T03:30:02;101038.78;;;11.67;100.00
51297;BME280;37380;45.186;9.792;2023-03-31T03:32:30;101033.19;;;11.57;100.00
51297;BME280;37380;45.186;9.792;2023-03-31T03:35:00;100995.69;;;11.33;100.00
51297;BME280;37380;45.186;9.792;2023-03-31T03:37:28;100935.22;;;11.00;100.00
51297;BME280;37380;45.186;9.792;2023-03-31T03:39:55;101011.38;;;11.33;100.00
51297;BME280;37380;45.186;9.792;2023-03-31T03:42:22;101037.09;;;11.45;100.00
51297;BME280;37380;45.186;9.792;2023-03-31T03:44:49;101010.97;;;11.22;100.00
51297;BME280;37380;45.186;9.792;2023-03-31T03:47:16;101036.75;;;11.60;100.00
51297;BME280;37380;45.186;9.792;2023-03-31T03:49:43;101005.94;;;11.27;100.00
51297;BME280;37380;45.186;9.792;2023-03-31T03:52:09;101022.41;;;11.24;100.00
51297;BME280;37380;45.186;9.792;2023-03-31T03:54:43;101014.25;;;11.17;100.00
51297;BME280;37380;45.186;9.792;2023-03-31T03:57:37;101018.28;;;11.31;100.00
51297;BME280;37380;45.186;9.792;2023-03-31T04:00:04;101015.16;;;11.41;100.00
51297;BME280;37380;45.186;9.792;2023-03-31T04:02:39;101051.28;;;11.51;100.00
51297;BME280;37380;45.186;9.792;2023-03-31T04:05:06;100937.88;;;11.01;100.00
51297;BME280;37380;45.186;9.792;2023-03-31T04:07:33;101036.44;;;11.50;100.00
51297;BME280;37380;45.186;9.792;2023-03-31T04:10:00;101025.31;;;11.32;100.00
51297;BME280;37380;45.186;9.792;2023-03-31T04:12:27;101016.63;;;11.33;100.00
51297;BME280;37380;45.186;9.792;2023-03-31T04:14:54;101058.25;;;11.51;100.00
51297;BME280;37380;45.186;9.792;2023-03-31T04:17:21;100957.78;;;10.98;100.00
51297;BME280;37380;45.186;9.792;2023-03-31T04:20:09;101016.81;;;11.39;100.00
51297;BME280;37380;45.186;9.792;2023-03-31T04:22:37;100997.22;;;11.28;100.00
51297;BME280;37380;45.186;9.792;2023-03-31T04:25:09;101022.63;;;11.30;100.00
51297;BME280;37380;45.186;9.792;2023-03-31T04:27:43;101045.13;;;11.49;100.00
51297;BME280;37380;45.186;9.792;2023-03-31T04:30:16;101038.75;;;11.43;100.00
51297;BME280;37380;45.186;9.792;2023-03-31T04:33:01;101057.38;;;11.50;100.00
51297;BME280;37380;45.186;9.792;2023-03-31T04:35:30;101024.25;;;11.27;100.00
51297;BME280;37380;45.186;9.792;2023-03-31T04:38:16;101054.09;;;11.56;100.00
51297;BME280;37380;45.186;9.792;2023-03-31T04:40:46;101026.28;;;11.60;100.00
51297;BME280;37380;45.186;9.792;2023-03-31T04:43:13;100994.66;;;11.53;100.00
51297;BME280;37380;45.186;9.792;2023-03-31T04:45:40;100929.66;;;11.15;100.00
51297;BME280;37380;45.186;9.792;2023-03-31T04:48:14;100972.66;;;11.48;100.00
51297;BME280;37380;45.186;9.792;2023-03-31T04:51:15;100962.75;;;11.38;100.00
51297;BME280;37380;45.186;9.792;2023-03-31T04:54:16;101018.44;;;11.60;100.00
51297;BME280;37380;45.186;9.792;2023-03-31T04:57:17;100968.00;;;11.40;100.00
51297;BME280;37380;45.186;9.792;2023-03-31T05:00:18;100983.38;;;11.30;100.00
51297;BME280;37380;45.186;9.792;2023-03-31T05:03:05;100958.56;;;11.19;100.00
51297;BME280;37380;45.186;9.792;2023-03-31T05:05:32;100945.44;;;11.18;100.00
51297;BME280;37380;45.186;9.792;2023-03-31T05:08:00;100925.97;;;11.09;100.00
51297;BME280;37380;45.186;9.792;2023-03-31T05:10:27;100923.56;;;11.16;100.00
51297;BME280;37380;45.186;9.792;2023-03-31T05:12:54;101005.56;;;11.66;100.00
51297;BME280;37380;45.186;9.792;2023-03-31T05:15:23;100937.69;;;11.21;100.00
51297;BME280;37380;45.186;9.792;2023-03-31T05:17:50;100955.47;;;11.55;100.00
51297;BME280;37380;45.186;9.792;2023-03-31T05:20:19;100983.63;;;11.62;100.00
51297;BME280;37380;45.186;9.792;2023-03-31T05:22:52;100980.06;;;11.35;100.00
51297;BME280;37380;45.186;9.792;2023-03-31T05:25:46;100924.69;;;10.98;100.00
51297;BME280;37380;45.186;9.792;2023-03-31T05:28:13;100903.53;;;10.92;100.00
51297;BME280;37380;45.186;9.792;2023-03-31T05:30:40;100901.03;;;10.95;100.00
51297;BME280;37380;45.186;9.792;2023-03-31T05:33:07;100958.06;;;11.05;100.00
51297;BME280;37380;45.186;9.792;2023-03-31T05:35:34;100885.63;;;10.79;100.00
51297;BME280;37380;45.186;9.792;2023-03-31T05:38:08;100953.53;;;11.25;100.00
51297;BME280;37380;45.186;9.792;2023-03-31T05:41:02;100959.22;;;11.14;100.00
51297;BME280;37380;45.186;9.792;2023-03-31T05:43:29;100846.38;;;10.53;100.00
51297;BME280;37380;45.186;9.792;2023-03-31T05:45:56;100908.66;;;10.89;100.00
51297;BME280;37380;45.186;9.792;2023-03-31T05:48:23;100917.22;;;11.09;100.00
51297;BME280;37380;45.186;9.792;2023-03-31T05:50:50;100873.28;;;10.99;100.00
51297;BME280;37380;45.186;9.792;2023-03-31T05:53:24;100937.38;;;11.37;100.00
51297;BME280;37380;45.186;9.792;2023-03-31T05:56:26;100894.97;;;11.20;100.00
51297;BME280;37380;45.186;9.792;2023-03-31T05:59:27;100930.31;;;11.59;100.00
51297;BME280;37380;45.186;9.792;2023-03-31T06:02:02;100891.25;;;11.39;100.00
51297;BME280;37380;45.186;9.792;2023-03-31T06:04:29;100899.41;;;11.48;100.00
51297;BME280;37380;45.186;9.792;2023-03-31T06:06:58;100966.16;;;11.87;100.00
51297;BME280;37380;45.186;9.792;2023-03-31T06:09:25;100946.72;;;11.80;100.00
51297;BME280;37380;45.186;9.792;2023-03-31T06:11:52;100898.72;;;11.79;100.00
51297;BME280;37380;45.186;9.792;2023-03-31T06:14:19;100885.22;;;11.67;100.00
51297;BME280;37380;45.186;9.792;2023-03-31T06:16:46;100881.13;;;11.75;100.00
51297;BME280;37380;45.186;9.792;2023-03-31T06:19:14;100872.81;;;11.62;100.00
51297;BME280;37380;45.186;9.792;2023-03-31T06:21:47;100891.28;;;11.66;100.00
51297;BME280;37380;45.186;9.792;2023-03-31T06:24:41;100929.00;;;11.97;100.00
51297;BME280;37380;45.186;9.792;2023-03-31T06:27:08;100886.19;;;11.69;100.00
51297;BME280;37380;45.186;9.792;2023-03-31T06:29:35;100880.19;;;11.73;100.00
51297;BME280;37380;45.186;9.792;2023-03-31T06:32:02;100894.69;;;11.89;100.00
51297;BME280;37380;45.186;9.792;2023-03-31T06:34:31;100867.81;;;11.95;100.00
51297;BME280;37380;45.186;9.792;2023-03-31T06:36:57;100858.84;;;12.15;100.00
51297;BME280;37380;45.186;9.792;2023-03-31T06:39:24;100826.59;;;12.16;100.00
51297;BME280;37380;45.186;9.792;2023-03-31T06:41:53;100809.84;;;12.11;100.00
51297;BME280;37380;45.186;9.792;2023-03-31T06:44:26;100898.22;;;12.45;100.00
51297;BME280;37380;45.186;9.792;2023-03-31T06:46:53;100874.28;;;12.65;100.00
51297;BME280;37380;45.186;9.792;2023-03-31T06:49:27;100828.34;;;12.48;100.00
51297;BME280;37380;45.186;9.792;2023-03-31T06:52:21;100904.69;;;12.88;100.00
51297;BME280;37380;45.186;9.792;2023-03-31T06:54:55;100890.91;;;12.96;100.00
51297;BME280;37380;45.186;9.792;2023-03-31T06:57:49;100880.41;;;12.96;100.00
51297;BME280;37380;45.186;9.792;2023-03-31T07:00:17;100899.81;;;13.01;100.00
51297;BME280;37380;45.186;9.792;2023-03-31T07:03:08;100875.50;;;13.08;100.00
51297;BME280;37380;45.186;9.792;2023-03-31T07:06:15;100848.53;;;12.80;100.00
51297;BME280;37380;45.186;9.792;2023-03-31T07:09:09;100886.22;;;12.84;100.00
51297;BME280;37380;45.186;9.792;2023-03-31T07:11:36;100831.72;;;12.74;100.00
51297;BME280;37380;45.186;9.792;2023-03-31T07:14:10;100837.59;;;12.97;100.00
51297;BME280;37380;45.186;9.792;2023-03-31T07:17:04;100831.22;;;13.20;100.00
51297;BME280;37380;45.186;9.792;2023-03-31T07:19:38;100770.28;;;12.96;100.00
51297;BME280;37380;45.186;9.792;2023-03-31T07:22:33;100856.72;;;13.57;100.00
51297;BME280;37380;45.186;9.792;2023-03-31T07:25:00;100884.53;;;13.86;100.00
51297;BME280;37380;45.186;9.792;2023-03-31T07:27:27;100856.41;;;13.81;100.00
51297;BME280;37380;45.186;9.792;2023-03-31T07:29:54;100800.59;;;13.19;100.00
51297;BME280;37380;45.186;9.792;2023-03-31T07:32:21;100823.06;;;13.41;100.00
51297;BME280;37380;45.186;9.792;2023-03-31T07:34:57;100863.31;;;13.76;100.00
51297;BME280;37380;45.186;9.792;2023-03-31T07:37:58;100875.44;;;13.71;100.00
51297;BME280;37380;45.186;9.792;2023-03-31T07:40:59;100858.34;;;13.89;100.00
51297;BME280;37380;45.186;9.792;2023-03-31T07:43:35;100814.97;;;13.68;100.00
51297;BME280;37380;45.186;9.792;2023-03-31T07:46:03;100844.78;;;13.70;100.00
51297;BME280;37380;45.186;9.792;2023-03-31T07:48:32;100862.03;;;13.97;100.00
51297;BME280;37380;45.186;9.792;2023-03-31T07:50:59;100770.50;;;13.05;100.00
51297;BME280;37380;45.186;9.792;2023-03-31T07:53:38;100840.16;;;13.60;100.00
51297;BME280;37380;45.186;9.792;2023-03-31T07:56:25;100817.31;;;13.94;100.00
51297;BME280;37380;45.186;9.792;2023-03-31T07:58:59;100804.19;;;13.94;100.00
51297;BME280;37380;45.186;9.792;2023-03-31T08:01:53;100781.81;;;14.11;100.00
51297;BME280;37380;45.186;9.792;2023-03-31T08:04:20;100784.31;;;14.05;100.00
51297;BME280;37380;45.186;9.792;2023-03-31T08:06:54;100808.34;;;14.23;100.00
51297;BME280;37380;45.186;9.792;2023-03-31T08:09:55;100842.41;;;14.58;100.00
51297;BME280;37380;45.186;9.792;2023-03-31T08:12:56;100847.63;;;14.19;100.00
51297;BME280;37380;45.186;9.792;2023-03-31T08:15:57;100802.44;;;13.94;100.00
51297;BME280;37380;45.186;9.792;2023-03-31T08:18:27;100850.81;;;14.04;100.00
51297;BME280;37380;45.186;9.792;2023-03-31T08:20:54;100847.31;;;14.43;100.00
51297;BME280;37380;45.186;9.792;2023-03-31T08:23:21;100844.16;;;14.59;100.00
51297;BME280;37380;45.186;9.792;2023-03-31T08:25:48;100803.25;;;13.54;100.00
51297;BME280;37380;45.186;9.792;2023-03-31T08:28:15;100842.97;;;13.33;100.00
51297;BME280;37380;45.186;9.792;2023-03-31T08:30:43;100875.25;;;14.00;100.00
51297;BME280;37380;45.186;9.792;2023-03-31T08:33:10;100810.53;;;14.03;100.00
51297;BME280;37380;45.186;9.792;2023-03-31T08:35:47;100780.84;;;13.68;100.00
51297;BME280;37380;45.186;9.792;2023-03-31T08:38:42;100877.69;;;14.69;100.00
51297;BME280;37380;45.186;9.792;2023-03-31T08:43:54;100856.53;;;14.63;100.00
51297;BME280;37380;45.186;9.792;2023-03-31T08:46:24;100867.09;;;13.89;100.00
51297;BME280;37380;45.186;9.792;2023-03-31T08:48:55;100747.75;;;14.17;100.00
51297;BME280;37380;45.186;9.792;2023-03-31T08:51:34;100844.69;;;15.84;100.00
51297;BME280;37380;45.186;9.792;2023-03-31T08:54:20;100840.00;;;16.95;99.05
51297;BME280;37380;45.186;9.792;2023-03-31T08:57:29;100838.69;;;17.40;97.47
51297;BME280;37380;45.186;9.792;2023-03-31T09:18:06;100825.66;;;17.60;91.45
51297;BME280;37380;45.186;9.792;2023-03-31T09:20:44;100805.09;;;17.24;91.91
51297;BME280;37380;45.186;9.792;2023-03-31T09:23:30;100795.03;;;17.84;87.72
51297;BME280;37380;45.186;9.792;2023-03-31T09:25:58;100788.69;;;17.65;89.42
51297;BME280;37380;45.186;9.792;2023-03-31T09:28:37;100726.63;;;17.05;91.37
51297;BME280;37380;45.186;9.792;2023-03-31T09:31:15;100781.94;;;16.95;91.40
51297;BME280;37380;45.186;9.792;2023-03-31T09:33:45;100703.19;;;15.77;97.06
51297;BME280;37380;45.186;9.792;2023-03-31T09:36:15;100767.97;;;16.28;98.14
51297;BME280;37380;45.186;9.792;2023-03-31T09:39:16;100686.56;;;16.59;94.19
51297;BME280;37380;45.186;9.792;2023-03-31T09:42:17;100741.91;;;17.46;90.00
51297;BME280;37380;45.186;9.792;2023-03-31T09:45:16;100717.06;;;17.22;88.80
51297;BME280;37380;45.186;9.792;2023-03-31T09:47:50;100723.63;;;17.78;83.54
51297;BME280;37380;45.186;9.792;2023-03-31T09:50:19;100733.94;;;17.41;84.24
51297;BME280;37380;45.186;9.792;2023-03-31T09:52:54;100738.69;;;18.00;79.85
51297;BME280;37380;45.186;9.792;2023-03-31T09:55:39;100690.38;;;16.90;87.21
51297;BME280;37380;45.186;9.792;2023-03-31T09:58:45;100734.59;;;17.11;86.48
51297;BME280;37380;45.186;9.792;2023-03-31T10:01:39;100688.22;;;16.49;91.40
51297;BME280;37380;45.186;9.792;2023-03-31T10:04:08;100693.66;;;16.66;88.75
51297;BME280;37380;45.186;9.792;2023-03-31T10:06:42;100707.06;;;16.86;88.71
51297;BME280;37380;45.186;9.792;2023-03-31T10:09:37;100745.81;;;16.88;88.99
51297;BME280;37380;45.186;9.792;2023-03-31T10:12:07;100626.78;;;16.61;84.78
51297;BME280;37380;45.186;9.792;2023-03-31T10:14:53;100701.16;;;17.14;86.19
51297;BME280;37380;45.186;9.792;2023-03-31T10:17:47;100672.88;;;16.13;88.93
51297;BME280;37380;45.186;9.792;2023-03-31T10:20:29;100724.66;;;16.07;94.56
51297;BME280;37380;45.186;9.792;2023-03-31T10:23:02;100725.47;;;16.77;90.87
51297;BME280;37380;45.186;9.792;2023-03-31T10:25:29;100675.16;;;16.61;88.14
51297;BME280;37380;45.186;9.792;2023-03-31T10:28:00;100639.78;;;16.39;89.36
51297;BME280;37380;45.186;9.792;2023-03-31T10:30:33;100713.72;;;17.51;85.75
51297;BME280;37380;45.186;9.792;2023-03-31T10:33:05;100702.34;;;17.61;86.22
51297;BME280;37380;45.186;9.792;2023-03-31T10:35:57;100690.56;;;17.11;88.01
51297;BME280;37380;45.186;9.792;2023-03-31T10:38:30;100678.59;;;16.52;91.25
51297;BME280;37380;45.186;9.792;2023-03-31T10:40:59;100602.94;;;16.48;89.75
51297;BME280;37380;45.186;9.792;2023-03-31T10:43:47;100658.28;;;17.55;85.94
51297;BME280;37380;45.186;9.792;2023-03-31T10:46:15;100587.31;;;16.70;86.39
51297;BME280;37380;45.186;9.792;2023-03-31T10:48:42;100640.41;;;17.10;87.75
51297;BME280;37380;45.186;9.792;2023-03-31T10:51:15;100612.59;;;17.76;81.63
51297;BME280;37380;45.186;9.792;2023-03-31T10:53:52;100579.63;;;16.96;84.95
51297;BME280;37380;45.186;9.792;2023-03-31T10:56:57;100643.41;;;17.76;84.64
51297;BME280;37380;45.186;9.792;2023-03-31T11:00:25;100641.03;;;18.51;82.33
51297;BME280;37380;45.186;9.792;2023-03-31T11:06:04;100612.81;;;18.94;77.20
51297;BME280;37380;45.186;9.792;2023-03-31T11:08:47;100618.09;;;18.53;82.62
51297;BME280;37380;45.186;9.792;2023-03-31T11:11:29;100585.34;;;17.88;84.32
51297;BME280;37380;45.186;9.792;2023-03-31T11:14:51;100581.91;;;18.40;82.73
51297;BME280;37380;45.186;9.792;2023-03-31T11:17:02;100439.91;;;17.51;82.23
51297;BME280;37380;45.186;9.792;2023-03-31T11:39:02;100470.75;;;18.84;76.66
51297;BME280;37380;45.186;9.792;2023-03-31T11:41:40;100482.28;;;18.26;80.79
51297;BME280;37380;45.186;9.792;2023-03-31T11:44:15;100490.19;;;18.83;78.62
51297;BME280;37380;45.186;9.792;2023-03-31T11:46:47;100519.28;;;18.85;77.94
51297;BME280;37380;45.186;9.792;2023-03-31T11:49:29;100509.34;;;19.50;75.77
51297;BME280;37380;45.186;9.792;2023-03-31T11:52:29;100497.53;;;20.07;72.52
51297;BME280;37380;45.186;9.792;2023-03-31T11:55:04;100496.97;;;19.50;72.87
51297;BME280;37380;45.186;9.792;2023-03-31T11:58:06;100487.50;;;18.88;75.67
51297;BME280;37380;45.186;9.792;2023-03-31T12:04:17;100442.50;;;18.97;77.36
51297;BME280;37380;45.186;9.792;2023-03-31T12:10:34;100433.72;;;17.54;85.47
51297;BME280;37380;45.186;9.792;2023-03-31T12:13:59;100409.91;;;18.61;79.43
51297;BME280;37380;45.186;9.792;2023-03-31T12:16:40;100377.78;;;19.44;74.54
51297;BME280;37380;45.186;9.792;2023-03-31T12:19:29;100417.34;;;19.76;73.10
51297;BME280;37380;45.186;9.792;2023-03-31T12:22:24;100418.78;;;18.29;78.57
51297;BME280;37380;45.186;9.792;2023-03-31T12:24:53;100384.13;;;19.14;76.09
51297;BME280;37380;45.186;9.792;2023-03-31T12:27:40;100386.91;;;18.88;77.51
51297;BME280;37380;45.186;9.792;2023-03-31T12:30:38;100400.13;;;18.92;77.54
51297;BME280;37380;45.186;9.792;2023-03-31T12:33:21;100314.78;;;18.30;78.32
51297;BME280;37380;45.186;9.792;2023-03-31T12:39:30;100393.88;;;19.07;78.45
51297;BME280;37380;45.186;9.792;2023-03-31T12:43:17;100401.19;;;17.76;82.69
51297;BME280;37380;45.186;9.792;2023-03-31T12:56:13;100293.69;;;18.03;80.73
51297;BME280;37380;45.186;9.792;2023-03-31T12:59:34;100284.94;;;17.64;83.85
51297;BME280;37380;45.186;9.792;2023-03-31T13:11:54;100325.75;;;19.34;76.27
51297;BME280;37380;45.186;9.792;2023-03-31T13:14:35;100290.00;;;18.59;78.01
51297;BME280;37380;45.186;9.792;2023-03-31T13:17:34;100321.75;;;18.50;79.52
51297;BME280;37380;45.186;9.792;2023-03-31T13:20:16;100326.00;;;18.97;78.43
51297;BME280;37380;45.186;9.792;2023-03-31T13:22:45;100257.31;;;18.66;77.38
51297;BME280;37380;45.186;9.792;2023-03-31T13:25:41;100316.47;;;18.47;79.78
51297;BME280;37380;45.186;9.792;2023-03-31T13:31:16;100229.41;;;18.01;79.56
51297;BME280;37380;45.186;9.792;2023-03-31T13:33:53;100297.06;;;18.51;79.33
51297;BME280;37380;45.186;9.792;2023-03-31T13:52:07;100219.38;;;18.73;77.22
51297;BME280;37380;45.186;9.792;2023-03-31T14:04:44;100225.28;;;19.09;78.83
51297;BME280;37380;45.186;9.792;2023-03-31T14:07:17;100211.44;;;18.66;77.58
51297;BME280;37380;45.186;9.792;2023-03-31T14:09:46;100191.34;;;18.31;77.60
51297;BME280;37380;45.186;9.792;2023-03-31T14:12:19;100199.38;;;18.13;80.57
51297;BME280;37380;45.186;9.792;2023-03-31T14:14:52;100196.00;;;17.63;81.92
51297;BME280;37380;45.186;9.792;2023-03-31T14:17:52;100131.34;;;18.41;76.39
51297;BME280;37380;45.186;9.792;2023-03-31T14:23:39;100178.56;;;19.02;77.95
51297;BME280;37380;45.186;9.792;2023-03-31T14:26:25;100118.44;;;17.85;78.86
51297;BME280;37380;45.186;9.792;2023-03-31T14:29:10;100068.28;;;17.65;79.29
51297;BME280;37380;45.186;9.792;2023-03-31T14:37:09;100159.09;;;19.09;75.87
51297;BME280;37380;45.186;9.792;2023-03-31T14:42:16;100142.97;;;18.15;81.74
51297;BME280;37380;45.186;9.792;2023-03-31T14:44:44;100138.47;;;18.32;78.98
51297;BME280;37380;45.186;9.792;2023-03-31T14:47:18;100132.56;;;17.81;82.49
51297;BME280;37380;45.186;9.792;2023-03-31T14:49:46;100095.56;;;17.78;82.72
51297;BME280;37380;45.186;9.792;2023-03-31T14:52:20;100126.78;;;18.63;79.12
51297;BME280;37380;45.186;9.792;2023-03-31T14:54:55;100120.78;;;18.38;78.78
51297;BME280;37380;45.186;9.792;2023-03-31T14:57:58;100139.53;;;17.92;83.28
51297;BME280;37380;45.186;9.792;2023-03-31T15:00:53;100135.28;;;17.46;89.23
51297;BME280;37380;45.186;9.792;2023-03-31T15:03:20;99991.97;;;17.00;88.85
51297;BME280;37380;45.186;9.792;2023-03-31T15:05:47;100117.72;;;17.19;91.72
51297;BME280;37380;45.186;9.792;2023-03-31T15:08:19;100083.44;;;16.71;90.38
51297;BME280;37380;45.186;9.792;2023-03-31T15:10:54;100111.56;;;17.31;91.01
51297;BME280;37380;45.186;9.792;2023-03-31T15:13:40;100090.41;;;17.25;90.12
51297;BME280;37380;45.186;9.792;2023-03-31T15:18:46;100003.47;;;16.46;92.23
51297;BME280;37380;45.186;9.792;2023-03-31T15:21:25;100050.91;;;16.59;92.94
51297;BME280;37380;45.186;9.792;2023-03-31T15:24:02;100110.72;;;17.06;94.10
51297;BME280;37380;45.186;9.792;2023-03-31T15:27:35;100112.47;;;16.94;95.38
51297;BME280;37380;45.186;9.792;2023-03-31T15:30:37;100035.09;;;16.52;95.83
51297;BME280;37380;45.186;9.792;2023-03-31T15:33:49;100101.88;;;16.39;100.00
51297;BME280;37380;45.186;9.792;2023-03-31T15:36:16;100103.59;;;16.13;100.00
51297;BME280;37380;45.186;9.792;2023-03-31T15:38:57;100077.19;;;15.90;100.00
51297;BME280;37380;45.186;9.792;2023-03-31T15:41:52;100121.06;;;15.91;100.00
51297;BME280;37380;45.186;9.792;2023-03-31T15:44:43;100078.91;;;15.80;100.00
51297;BME280;37380;45.186;9.792;2023-03-31T15:47:17;100127.31;;;16.16;100.00
51297;BME280;37380;45.186;9.792;2023-03-31T15:49:53;99974.38;;;15.62;100.00
51297;BME280;37380;45.186;9.792;2023-03-31T15:52:26;100123.78;;;16.12;100.00
51297;BME280;37380;45.186;9.792;2023-03-31T15:55:00;100106.19;;;15.91;100.00
51297;BME280;37380;45.186;9.792;2023-03-31T15:58:01;100087.69;;;15.80;100.00
51297;BME280;37380;45.186;9.792;2023-03-31T16:01:02;100115.88;;;16.14;100.00
51297;BME280;37380;45.186;9.792;2023-03-31T16:03:35;100101.78;;;16.02;100.00
51297;BME280;37380;45.186;9.792;2023-03-31T16:08:40;100062.94;;;15.49;100.00
51297;BME280;37380;45.186;9.792;2023-03-31T16:11:14;100011.16;;;15.39;100.00
51297;BME280;37380;45.186;9.792;2023-03-31T16:13:47;100095.53;;;15.73;100.00
51297;BME280;37380;45.186;9.792;2023-03-31T16:16:17;100095.63;;;15.91;100.00
51297;BME280;37380;45.186;9.792;2023-03-31T16:18:51;100008.41;;;15.21;100.00
51297;BME280;37380;45.186;9.792;2023-03-31T16:21:34;100103.44;;;15.70;100.00
51297;BME280;37380;45.186;9.792;2023-03-31T16:24:36;100025.09;;;15.23;100.00